Time;durP1;ratioP1;P1;durP2;ratioP2;P2;SDS_P1;SDS_P2;PMS_P1;PMS_P2;Temp;Humidity;BMP_temperature;BMP_pressure;BME280_temperature;BME280_humidity;BME280_pressure;Samples;Min_cycle;Max_cycle;Signal;HPM_P1;HPM_P2
2022/04/26 03:36:59;;;;;;;13.80;11.68;;;10.20;99.90;;;;;;5034221;28;20230;-73
2022/04/26 03:39:26;;;;;;;13.50;11.40;;;10.20;99.90;;;;;;5033761;28;20242;-73
2022/04/26 03:41:53;;;;;;;13.45;11.93;;;10.20;99.90;;;;;;5033493;28;20203;-73
2022/04/26 03:44:20;;;;;;;15.23;11.75;;;10.20;99.90;;;;;;5033514;28;20213;-73
2022/04/26 03:46:47;;;;;;;13.77;12.27;;;10.20;99.90;;;;;;5032769;28;20234;-74
2022/04/26 03:49:15;;;;;;;15.00;12.70;;;10.20;99.90;;;;;;5032488;28;20581;-72
2022/04/26 03:51:42;;;;;;;12.27;10.98;;;10.20;99.90;;;;;;5032311;28;20261;-73
2022/04/26 03:54:09;;;;;;;13.13;11.43;;;10.30;99.90;;;;;;5032664;28;20598;-75
2022/04/26 03:56:35;;;;;;;13.18;11.88;;;10.30;99.90;;;;;;5032954;28;20235;-73
2022/04/26 03:59:02;;;;;;;13.82;11.32;;;10.30;99.90;;;;;;5032913;28;20293;-72
2022/04/26 04:01:29;;;;;;;14.07;12.43;;;10.20;99.90;;;;;;5032782;28;20234;-73
2022/04/26 04:03:56;;;;;;;13.60;12.20;;;10.20;99.90;;;;;;5032574;28;20211;-73
2022/04/26 04:06:24;;;;;;;13.95;12.07;;;10.30;99.90;;;;;;5032541;28;20591;-72
2022/04/26 04:08:51;;;;;;;12.70;11.40;;;10.20;99.90;;;;;;5032939;28;20302;-74
2022/04/26 04:11:18;;;;;;;16.45;13.32;;;10.30;99.90;;;;;;5032584;28;20239;-74
2022/04/26 04:13:45;;;;;;;12.60;11.30;;;10.30;99.90;;;;;;5033069;28;20203;-72
2022/04/26 04:16:12;;;;;;;14.88;12.90;;;10.30;99.90;;;;;;5033538;28;20234;-73
2022/04/26 04:21:25;;;;;;;15.68;13.93;;;10.30;99.90;;;;;;5037112;28;20209;-73
2022/04/26 04:23:51;;;;;;;16.15;13.93;;;10.30;99.90;;;;;;5038821;28;20258;-72
2022/04/26 04:26:18;;;;;;;15.77;14.18;;;10.30;99.90;;;;;;5032760;28;20681;-72
2022/04/26 04:28:46;;;;;;;16.42;14.07;;;10.30;99.90;;;;;;5034644;28;20250;-72
2022/04/26 04:31:13;;;;;;;15.52;12.98;;;10.20;99.90;;;;;;5035653;28;20222;-73
2022/04/26 04:33:40;;;;;;;14.95;12.90;;;10.30;99.90;;;;;;5033241;28;20207;-73
2022/04/26 04:36:07;;;;;;;16.20;13.00;;;10.30;99.90;;;;;;5033497;28;20689;-72
2022/04/26 04:38:36;;;;;;;16.88;15.00;;;10.40;99.90;;;;;;5033730;28;20215;-73
2022/04/26 04:41:02;;;;;;;16.98;14.70;;;10.40;99.90;;;;;;5033032;28;20207;-72
2022/04/26 04:43:29;;;;;;;17.30;15.23;;;10.30;99.90;;;;;;5034079;28;20203;-73
2022/04/26 04:45:56;;;;;;;17.55;14.65;;;10.30;99.90;;;;;;5033450;28;20231;-72
2022/04/26 04:48:23;;;;;;;18.77;16.77;;;10.40;99.90;;;;;;5032938;28;20239;-73
2022/04/26 04:50:50;;;;;;;16.85;14.57;;;10.30;99.90;;;;;;5032761;28;20699;-73
2022/04/26 04:53:19;;;;;;;19.13;15.73;;;10.40;99.90;;;;;;5033218;28;20254;-72
2022/04/26 04:55:48;;;;;;;17.05;15.15;;;10.40;99.90;;;;;;5032863;28;20222;-73
2022/04/26 04:58:15;;;;;;;18.10;16.10;;;10.50;99.90;;;;;;5035292;28;20276;-73
2022/04/26 05:00:42;;;;;;;18.65;14.45;;;10.50;99.90;;;;;;5037406;28;20222;-73
2022/04/26 05:03:09;;;;;;;20.13;15.43;;;10.50;99.90;;;;;;5035675;28;20225;-73
2022/04/26 05:05:36;;;;;;;16.80;15.10;;;10.50;99.90;;;;;;5036738;28;20215;-73
2022/04/26 05:08:03;;;;;;;16.08;13.40;;;10.60;99.90;;;;;;5037132;28;20207;-71
2022/04/26 05:10:33;;;;;;;18.30;14.80;;;10.50;99.90;;;;;;5036666;28;20227;-71
2022/04/26 05:13:02;;;;;;;16.33;14.00;;;10.50;99.90;;;;;;5040017;28;20275;-72
2022/04/26 05:15:28;;;;;;;17.80;14.65;;;10.50;99.90;;;;;;5044075;28;20207;-71
2022/04/26 05:17:55;;;;;;;16.52;14.80;;;10.60;99.90;;;;;;5037552;28;20238;-73
2022/04/26 05:20:23;;;;;;;16.23;14.52;;;10.60;99.90;;;;;;5044905;28;20232;-72
2022/04/26 05:25:34;;;;;;;18.65;14.23;;;10.60;99.90;;;;;;5038407;28;20221;-74
2022/04/26 05:28:03;;;;;;;19.25;15.13;;;10.60;99.90;;;;;;5035894;28;20206;-73
2022/04/26 05:30:30;;;;;;;17.85;15.95;;;10.60;99.90;;;;;;5035869;28;20224;-73
2022/04/26 05:32:57;;;;;;;19.27;16.55;;;10.60;99.90;;;;;;5036225;28;20207;-73
2022/04/26 05:35:24;;;;;;;18.20;14.75;;;10.70;99.90;;;;;;5036718;28;20214;-73
2022/04/26 05:37:51;;;;;;;19.00;15.70;;;10.90;99.90;;;;;;5035984;28;20233;-73
2022/04/26 05:40:18;;;;;;;16.15;14.43;;;10.90;99.90;;;;;;5035866;28;20243;-71
2022/04/26 05:42:45;;;;;;;15.52;14.05;;;11.00;99.90;;;;;;5036113;28;20211;-73
2022/04/26 05:45:13;;;;;;;20.92;17.33;;;11.10;99.90;;;;;;5036230;28;20276;-73
2022/04/26 05:47:42;;;;;;;22.05;18.45;;;11.10;99.90;;;;;;5036095;28;20231;-73
2022/04/26 05:50:09;;;;;;;23.23;18.60;;;11.10;99.90;;;;;;5035386;28;20794;-72
2022/04/26 05:52:36;;;;;;;21.38;18.60;;;11.30;99.90;;;;;;5036243;28;20230;-72
2022/04/26 05:55:05;;;;;;;22.08;18.40;;;11.30;99.90;;;;;;5036871;28;20210;-74
2022/04/26 05:57:32;;;;;;;21.30;17.85;;;11.20;99.90;;;;;;5046395;28;20242;-73
2022/04/26 05:59:59;;;;;;;23.30;18.83;;;11.20;99.90;;;;;;5049225;28;20219;-72
2022/04/26 06:02:27;;;;;;;22.10;18.80;;;11.00;99.90;;;;;;5050010;28;20328;-72
2022/04/26 06:04:54;;;;;;;21.42;18.58;;;10.90;99.90;;;;;;5049936;28;20222;-73
2022/04/26 06:07:21;;;;;;;26.52;20.73;;;10.90;99.90;;;;;;5048603;28;20222;-72
2022/04/26 06:09:50;;;;;;;23.75;19.60;;;10.80;99.90;;;;;;5049712;28;20290;-72
2022/04/26 06:12:17;;;;;;;22.58;18.50;;;10.80;99.90;;;;;;5038014;28;20209;-74
2022/04/26 06:14:44;;;;;;;21.88;19.48;;;10.80;99.90;;;;;;5036176;28;20234;-73
2022/04/26 06:17:11;;;;;;;23.95;19.40;;;11.00;99.90;;;;;;5037316;28;20263;-72
2022/04/26 06:19:39;;;;;;;20.50;18.23;;;11.20;99.90;;;;;;5038222;28;20214;-73
2022/04/26 06:22:06;;;;;;;18.92;16.90;;;11.50;99.90;;;;;;5039989;28;20227;-73
2022/04/26 06:24:33;;;;;;;20.77;17.40;;;11.80;99.90;;;;;;5042730;28;20235;-73
2022/04/26 06:27:00;;;;;;;21.70;17.50;;;11.90;97.50;;;;;;5044677;28;20261;-72
2022/04/26 06:29:26;;;;;;;18.95;16.42;;;11.90;93.50;;;;;;5053871;28;20242;-73
2022/04/26 06:31:53;;;;;;;19.13;17.00;;;11.80;92.10;;;;;;5055630;28;20211;-72
2022/04/26 06:34:20;;;;;;;18.80;16.70;;;11.80;92.40;;;;;;5054421;28;20230;-73
2022/04/26 06:36:48;;;;;;;19.23;16.08;;;11.90;93.10;;;;;;5045370;28;20251;-73
2022/04/26 06:39:16;;;;;;;17.33;15.25;;;12.00;92.00;;;;;;5037450;28;20295;-73
2022/04/26 06:41:43;;;;;;;16.95;14.55;;;12.20;90.40;;;;;;5035102;28;20206;-72
2022/04/26 06:44:10;;;;;;;17.90;14.68;;;12.10;88.20;;;;;;5034550;28;20226;-72
2022/04/26 06:46:37;;;;;;;17.08;14.27;;;12.10;88.00;;;;;;5034423;28;20233;-73
2022/04/26 06:49:05;;;;;;;17.65;14.75;;;12.10;86.80;;;;;;5034428;28;20291;-73
2022/04/26 06:51:34;;;;;;;19.95;15.77;;;12.00;87.20;;;;;;5034315;28;20230;-73
2022/04/26 06:54:02;;;;;;;17.10;14.45;;;11.90;88.70;;;;;;5034776;28;20207;-72
2022/04/26 06:56:29;;;;;;;16.20;14.13;;;12.10;90.10;;;;;;5036534;28;20319;-73
2022/04/26 06:58:56;;;;;;;16.52;14.77;;;12.10;86.60;;;;;;5036703;28;20294;-72
2022/04/26 07:01:23;;;;;;;17.98;14.80;;;12.20;88.60;;;;;;5037913;28;20293;-73
2022/04/26 07:03:50;;;;;;;19.15;14.70;;;12.40;88.90;;;;;;5035435;28;20213;-73
2022/04/26 07:06:17;;;;;;;16.27;14.55;;;12.70;83.90;;;;;;5034859;28;20239;-74
2022/04/26 07:08:44;;;;;;;17.00;14.90;;;12.70;79.30;;;;;;5034886;28;20249;-73
2022/04/26 07:11:14;;;;;;;16.52;13.95;;;12.80;79.70;;;;;;5037765;28;20223;-73
2022/04/26 07:13:41;;;;;;;16.33;14.63;;;13.00;77.80;;;;;;5035741;28;20231;-73
2022/04/26 07:16:09;;;;;;;14.27;12.85;;;13.10;78.00;;;;;;5040084;28;20247;-73
2022/04/26 07:18:36;;;;;;;14.80;13.30;;;13.20;75.10;;;;;;5036359;28;20294;-73
2022/04/26 07:21:03;;;;;;;13.02;11.73;;;13.30;71.50;;;;;;5034475;28;20276;-73
2022/04/26 07:23:30;;;;;;;15.13;13.50;;;13.60;70.80;;;;;;5034791;28;20225;-73
2022/04/26 07:25:57;;;;;;;16.00;14.30;;;13.60;70.10;;;;;;5033738;28;20233;-72
2022/04/26 07:28:26;;;;;;;14.30;12.40;;;13.60;69.50;;;;;;5037507;28;20231;-72
2022/04/26 07:30:53;;;;;;;14.15;12.68;;;13.80;70.80;;;;;;5040516;28;20227;-73
2022/04/26 07:36:05;;;;;;;12.48;11.05;;;14.20;65.10;;;;;;5038520;28;20420;-75
2022/04/26 07:38:32;;;;;;;12.52;11.27;;;14.10;61.30;;;;;;5037118;28;20211;-72
2022/04/26 07:40:59;;;;;;;13.53;11.87;;;14.00;62.30;;;;;;5034047;28;20214;-72
2022/04/26 07:43:27;;;;;;;12.80;11.60;;;13.90;62.20;;;;;;5034226;28;20849;-72
2022/04/26 07:45:54;;;;;;;13.90;12.50;;;13.90;62.20;;;;;;5035300;28;20452;-73
2022/04/26 07:48:22;;;;;;;13.07;11.50;;;14.00;60.80;;;;;;5035201;28;20206;-75
2022/04/26 07:50:50;;;;;;;15.87;12.47;;;13.90;59.50;;;;;;5034860;28;20494;-73
2022/04/26 07:53:17;;;;;;;14.77;13.27;;;13.90;58.90;;;;;;5035307;28;20450;-73
2022/04/26 07:55:44;;;;;;;12.47;11.20;;;13.80;60.50;;;;;;5033887;28;20260;-73
2022/04/26 07:58:11;;;;;;;15.30;11.57;;;13.90;60.50;;;;;;5034354;28;20452;-72
2022/04/26 08:00:39;;;;;;;13.33;12.03;;;14.30;61.10;;;;;;5034198;28;20257;-71
2022/04/26 08:03:06;;;;;;;18.03;10.77;;;14.40;58.30;;;;;;5034017;28;20460;-72
2022/04/26 08:05:33;;;;;;;11.73;10.50;;;14.80;57.00;;;;;;5033941;28;20894;-72
2022/04/26 08:08:00;;;;;;;12.47;11.17;;;14.90;55.30;;;;;;5034210;28;20511;-74
2022/04/26 08:10:27;;;;;;;12.43;11.27;;;14.90;54.40;;;;;;5033030;28;20492;-74
2022/04/26 08:12:54;;;;;;;12.80;11.60;;;14.90;55.50;;;;;;5033996;28;20429;-73
2022/04/26 08:15:21;;;;;;;13.70;12.27;;;14.90;53.90;;;;;;5033683;28;20988;-73
2022/04/26 08:17:50;;;;;;;12.83;11.60;;;14.70;54.00;;;;;;5033332;28;20484;-74
2022/04/26 08:20:17;;;;;;;12.83;11.43;;;14.50;55.30;;;;;;5032711;28;20489;-74
2022/04/26 08:22:44;;;;;;;12.50;11.30;;;14.50;56.00;;;;;;5033628;28;20488;-72
2022/04/26 08:27:56;;;;;;;12.80;11.00;;;14.40;53.30;;;;;;5036091;28;20992;-74
2022/04/26 08:30:23;;;;;;;13.45;12.05;;;14.30;53.80;;;;;;5038773;28;20453;-73
2022/04/26 08:32:51;;;;;;;12.90;11.60;;;14.30;53.30;;;;;;5039674;28;20261;-74
2022/04/26 08:35:20;;;;;;;13.03;11.57;;;14.40;53.30;;;;;;5039618;28;21038;-75
2022/04/26 08:37:47;;;;;;;13.85;10.60;;;14.30;55.00;;;;;;5043285;28;20476;-73
2022/04/26 08:40:14;;;;;;;11.13;9.50;;;14.40;53.30;;;;;;5044319;28;20305;-75
2022/04/26 08:42:43;;;;;;;12.03;10.93;;;14.70;51.40;;;;;;5038645;28;20420;-74
2022/04/26 08:45:11;;;;;;;10.77;9.77;;;14.70;50.40;;;;;;5039056;28;20633;-73
2022/04/26 08:53:11;;;;;;;10.03;9.03;;;15.00;49.10;;;;;;5039792;28;20651;-73
2022/04/26 08:55:43;;;;;;;11.43;9.93;;;15.30;46.70;;;;;;5040185;28;20491;-74
2022/04/26 08:58:11;;;;;;;10.10;8.70;;;15.30;46.50;;;;;;5042473;28;20510;-76
2022/04/26 09:00:40;;;;;;;15.60;10.20;;;15.00;46.80;;;;;;5038390;28;20557;-73
2022/04/26 09:03:08;;;;;;;15.20;10.63;;;14.60;48.70;;;;;;5037332;28;20484;-74
2022/04/26 09:05:37;;;;;;;10.60;9.50;;;14.20;49.30;;;;;;5037680;28;20830;-75
2022/04/26 09:08:21;;;;;;;11.25;10.18;;;14.10;50.20;;;;;;5037626;28;20772;-73
2022/04/26 09:10:49;;;;;;;10.67;9.57;;;14.10;48.80;;;;;;5037500;28;20207;-74
2022/04/26 09:13:20;;;;;;;9.47;8.40;;;14.30;49.00;;;;;;5037371;28;20865;-73
2022/04/26 09:15:49;;;;;;;10.40;9.30;;;14.50;45.10;;;;;;5038324;28;21758;-73
2022/04/26 09:18:22;;;;;;;11.25;10.05;;;14.40;46.50;;;;;;5038052;28;20420;-73
2022/04/26 09:20:52;;;;;;;14.48;9.98;;;14.10;48.90;;;;;;5038087;28;20231;-74
2022/04/26 09:23:21;;;;;;;9.90;8.90;;;14.00;49.40;;;;;;5038338;28;20208;-73
2022/04/26 09:25:52;;;;;;;10.55;9.45;;;14.00;49.90;;;;;;5038639;28;20227;-73
2022/04/26 09:28:24;;;;;;;10.95;9.85;;;14.00;49.80;;;;;;5038444;28;20222;-72
2022/04/26 09:30:51;;;;;;;11.07;9.98;;;14.00;53.20;;;;;;5038372;28;20237;-73
2022/04/26 09:33:38;;;;;;;12.32;11.02;;;13.90;54.60;;;;;;5038231;28;20211;-72
2022/04/26 09:36:09;;;;;;;12.60;11.30;;;13.90;54.90;;;;;;5037490;28;20321;-73
2022/04/26 09:38:37;;;;;;;12.15;10.95;;;13.90;54.30;;;;;;5036698;28;20215;-74
2022/04/26 09:41:05;;;;;;;12.40;11.10;;;14.10;53.60;;;;;;5037917;28;20284;-72
2022/04/26 09:43:33;;;;;;;10.52;9.40;;;14.00;53.00;;;;;;5036735;28;20207;-73
2022/04/26 09:46:01;;;;;;;8.00;7.20;;;13.90;52.40;;;;;;5036514;28;20223;-74
2022/04/26 09:48:29;;;;;;;6.15;5.47;;;13.80;49.30;;;;;;5035687;28;20289;-74
2022/04/26 09:50:58;;;;;;;5.07;4.67;;;13.90;45.40;;;;;;5034734;28;20207;-73
2022/04/26 09:53:27;;;;;;;6.95;4.25;;;14.10;43.30;;;;;;5035659;28;20465;-73
2022/04/26 09:55:57;;;;;;;5.37;4.87;;;14.30;41.90;;;;;;5035515;28;20235;-73
2022/04/26 09:58:26;;;;;;;4.78;4.35;;;14.10;39.70;;;;;;5037153;28;20512;-72
2022/04/26 10:00:55;;;;;;;5.50;4.35;;;13.80;43.00;;;;;;5045123;28;20207;-73
2022/04/26 10:03:25;;;;;;;4.45;4.07;;;13.60;42.90;;;;;;5040160;28;20207;-72
2022/04/26 10:06:00;;;;;;;5.43;4.18;;;13.70;43.00;;;;;;5035328;28;20223;-72
2022/04/26 10:08:32;;;;;;;5.25;4.75;;;13.60;40.60;;;;;;5035443;28;20674;-73
2022/04/26 10:11:00;;;;;;;6.97;5.75;;;13.60;42.90;;;;;;5035004;28;20229;-73
2022/04/26 10:13:35;;;;;;;6.30;5.70;;;13.70;43.70;;;;;;5035617;28;20678;-72
2022/04/26 10:16:07;;;;;;;7.20;6.50;;;13.90;46.40;;;;;;5035429;28;20703;-73
2022/04/26 10:18:35;;;;;;;6.35;5.65;;;14.00;45.90;;;;;;5035245;28;20938;-73
2022/04/26 10:21:03;;;;;;;6.57;5.87;;;14.10;46.40;;;;;;5035636;28;20301;-73
2022/04/26 10:24:10;;;;;;;6.63;5.82;;;14.10;47.20;;;;;;5035550;28;20466;-73
2022/04/26 10:26:37;;;;;;;7.33;6.17;;;13.40;48.70;;;;;;5035005;28;20226;-75
2022/04/26 10:29:15;;;;;;;7.70;6.82;;;13.10;49.10;;;;;;5035299;28;20460;-73
2022/04/26 10:31:44;;;;;;;8.25;7.45;;;13.30;49.10;;;;;;5035572;28;20234;-72
2022/04/26 10:34:24;;;;;;;6.32;5.82;;;13.30;47.80;;;;;;5036573;28;20298;-74
2022/04/26 10:36:52;;;;;;;8.77;7.10;;;14.00;47.00;;;;;;5037748;28;20745;-73
2022/04/26 10:39:38;;;;;;;9.73;7.10;;;14.70;46.80;;;;;;5037525;28;20211;-74
2022/04/26 10:42:25;;;;;;;9.23;8.30;;;15.20;44.40;;;;;;5037596;28;20482;-73
2022/04/26 10:44:57;;;;;;;9.90;8.90;;;14.90;44.10;;;;;;5049866;28;21008;-74
2022/04/26 10:47:31;;;;;;;12.03;10.37;;;15.60;44.70;;;;;;5045832;28;20466;-74
2022/04/26 10:50:02;;;;;;;12.43;10.10;;;16.20;44.00;;;;;;5037693;28;20861;-73
2022/04/26 10:52:43;;;;;;;12.50;10.47;;;16.00;41.00;;;;;;5034913;28;21008;-73
2022/04/26 10:55:26;;;;;;;10.97;9.87;;;15.50;42.50;;;;;;5035192;28;20469;-73
2022/04/26 10:57:55;;;;;;;11.93;10.00;;;15.00;44.20;;;;;;5035621;28;20508;-73
2022/04/26 11:00:37;;;;;;;10.68;9.13;;;14.50;47.70;;;;;;5035262;28;20515;-74
2022/04/26 11:03:07;;;;;;;13.57;11.05;;;13.70;51.40;;;;;;5035591;28;20667;-72
2022/04/26 11:05:34;;;;;;;12.45;9.60;;;12.80;55.50;;;;;;5035729;28;20629;-75
2022/04/26 11:08:03;;;;;;;12.43;9.73;;;12.10;59.70;;;;;;5035849;28;20667;-73
2022/04/26 11:11:00;;;;;;;13.48;10.13;;;11.70;65.50;;;;;;5035351;28;20682;-73
2022/04/26 11:13:22;;;;;;;12.32;10.43;;;11.30;67.60;;;;;;5036646;28;20255;-75
2022/04/26 11:15:49;;;;;;;11.45;9.95;;;11.20;71.10;;;;;;5036583;28;20219;-74
2022/04/26 11:18:21;;;;;;;15.60;10.95;;;10.90;74.70;;;;;;5036650;28;20257;-74
2022/04/26 11:20:48;;;;;;;14.45;11.80;;;10.80;80.70;;;;;;5036950;28;20620;-73
2022/04/26 11:28:52;;;;;;;13.55;9.20;;;10.10;87.00;;;;;;5038354;28;20295;-74
2022/04/26 11:31:19;;;;;;;11.50;7.65;;;10.00;91.00;;;;;;5037529;28;20207;-74
2022/04/26 11:33:50;;;;;;;8.05;6.25;;;10.00;90.00;;;;;;5040514;28;20600;-74
2022/04/26 11:36:18;;;;;;;8.63;6.05;;;9.90;86.50;;;;;;5046204;28;20242;-74
2022/04/26 11:38:56;;;;;;;5.28;4.78;;;9.70;84.00;;;;;;5046620;28;20585;-73
2022/04/26 11:41:25;;;;;;;8.88;5.30;;;9.70;81.80;;;;;;5046775;28;20206;-75
2022/04/26 11:44:05;;;;;;;6.47;5.75;;;9.90;85.00;;;;;;5048253;28;20242;-73
2022/04/26 11:46:31;;;;;;;6.63;5.50;;;10.20;83.90;;;;;;5053418;28;20245;-75
2022/04/26 11:48:59;;;;;;;4.20;3.80;;;10.50;83.90;;;;;;5054478;28;20194;-78
2022/04/26 11:51:26;;;;;;;5.73;4.53;;;10.90;77.70;;;;;;5056399;28;20218;-74
2022/04/26 11:53:53;;;;;;;4.88;4.40;;;11.10;71.80;;;;;;5048339;28;20430;-73
2022/04/26 11:56:21;;;;;;;4.80;3.90;;;11.30;73.60;;;;;;5041875;28;20242;-73
2022/04/26 11:58:49;;;;;;;4.45;3.88;;;11.60;70.00;;;;;;5036686;28;20207;-73
2022/04/26 12:01:17;;;;;;;3.80;3.50;;;12.20;63.60;;;;;;5035036;28;20682;-74
2022/04/26 12:03:49;;;;;;;3.33;3.03;;;12.70;60.30;;;;;;5034764;28;20199;-73
2022/04/26 12:06:18;;;;;;;3.20;3.00;;;12.40;58.40;;;;;;5033422;28;20321;-73
2022/04/26 12:08:47;;;;;;;3.03;2.83;;;12.30;50.50;;;;;;5033763;28;20289;-72
2022/04/26 12:11:20;;;;;;;3.40;2.75;;;12.70;55.70;;;;;;5033339;28;20211;-74
2022/04/26 12:14:02;;;;;;;2.75;2.55;;;13.00;50.80;;;;;;5033016;28;20226;-72
2022/04/26 12:16:31;;;;;;;2.95;2.60;;;13.10;52.10;;;;;;5033459;28;20222;-74
2022/04/26 12:19:00;;;;;;;2.95;2.50;;;13.10;50.60;;;;;;5033428;28;20671;-73
2022/04/26 12:21:28;;;;;;;2.75;2.25;;;13.50;49.70;;;;;;5033442;28;20213;-73
2022/04/26 12:24:11;;;;;;;2.78;2.58;;;13.60;48.30;;;;;;5033698;28;20218;-73
2022/04/26 12:26:49;;;;;;;2.70;2.50;;;13.70;49.00;;;;;;5034544;28;20227;-74
2022/04/26 12:29:17;;;;;;;2.08;1.88;;;14.00;48.60;;;;;;5035029;28;20211;-74
2022/04/26 12:31:46;;;;;;;3.00;2.03;;;13.80;48.10;;;;;;5036213;28;20252;-73
2022/04/26 12:34:17;;;;;;;2.50;2.30;;;13.80;46.60;;;;;;5034210;28;20647;-73
2022/04/26 12:36:52;;;;;;;2.75;2.53;;;13.90;46.50;;;;;;5033123;28;20778;-74
2022/04/26 12:39:19;;;;;;;3.03;2.45;;;14.00;44.90;;;;;;5033159;28;20222;-73
2022/04/26 12:41:49;;;;;;;2.20;2.00;;;14.30;44.80;;;;;;5033133;28;20674;-73
2022/04/26 12:44:18;;;;;;;2.83;2.63;;;14.60;43.80;;;;;;5032950;28;20485;-74
2022/04/26 12:50:27;;;;;;;2.57;2.37;;;14.70;43.90;;;;;;5033529;28;20227;-74
2022/04/26 12:52:40;;;;;;;3.43;2.70;;;15.00;40.90;;;;;;5033296;28;20541;-73
2022/04/26 12:55:07;;;;;;;2.13;1.93;;;15.10;42.20;;;;;;5033484;28;20537;-73
2022/04/26 12:57:46;;;;;;;2.80;2.37;;;15.10;39.50;;;;;;5033651;28;20549;-71
2022/04/26 13:00:17;;;;;;;3.70;3.40;;;15.20;41.00;;;;;;5034713;28;20516;-72
2022/04/26 13:02:43;;;;;;;7.60;2.67;;;15.40;42.60;;;;;;5034628;28;20458;-72
2022/04/26 13:05:10;;;;;;;4.00;3.60;;;15.70;41.90;;;;;;5034798;28;20525;-72
2022/04/26 13:07:38;;;;;;;3.20;3.00;;;16.00;42.10;;;;;;5034444;28;20501;-73
2022/04/26 13:10:05;;;;;;;3.40;3.10;;;16.20;39.90;;;;;;5041980;28;20949;-71
2022/04/26 13:12:32;;;;;;;3.00;2.80;;;16.60;40.40;;;;;;5034702;28;20497;-73
2022/04/26 13:15:00;;;;;;;4.93;3.30;;;17.00;38.90;;;;;;5034515;28;20428;-75
2022/04/26 13:17:28;;;;;;;3.87;3.40;;;17.20;38.30;;;;;;5033625;28;20481;-72
2022/04/26 13:19:56;;;;;;;5.17;3.93;;;16.90;39.30;;;;;;5033294;28;20461;-74
2022/04/26 13:22:22;;;;;;;3.10;2.90;;;16.70;36.40;;;;;;5034073;28;20545;-73
2022/04/26 13:24:51;;;;;;;2.97;2.77;;;16.70;36.70;;;;;;5034708;28;20544;-74
2022/04/26 13:27:19;;;;;;;3.50;3.13;;;15.40;40.40;;;;;;5036905;28;20481;-72
2022/04/26 13:29:48;;;;;;;3.30;2.73;;;15.40;40.10;;;;;;5037256;28;20445;-72
2022/04/26 13:32:17;;;;;;;2.97;2.67;;;15.00;39.60;;;;;;5038060;28;20485;-74
2022/04/26 13:34:45;;;;;;;3.17;2.88;;;14.30;42.40;;;;;;5036856;28;20472;-72
2022/04/26 13:37:12;;;;;;;2.70;2.50;;;14.20;43.40;;;;;;5036135;28;20270;-72
2022/04/26 13:39:39;;;;;;;2.92;2.55;;;14.30;42.60;;;;;;5035998;28;20234;-73
2022/04/26 13:42:07;;;;;;;3.33;3.05;;;13.90;43.10;;;;;;5037446;28;20233;-72
2022/04/26 13:44:34;;;;;;;4.57;3.17;;;14.20;43.20;;;;;;5036240;28;20207;-74
2022/04/26 13:47:03;;;;;;;3.47;3.17;;;14.10;42.60;;;;;;5036718;28;20513;-75
2022/04/26 13:49:30;;;;;;;4.22;2.83;;;14.10;43.30;;;;;;5036111;28;20273;-73
2022/04/26 13:51:58;;;;;;;3.00;2.80;;;13.80;43.00;;;;;;5037581;28;20207;-74
2022/04/26 13:54:27;;;;;;;4.07;3.75;;;13.60;44.70;;;;;;5036785;28;20239;-74
2022/04/26 13:56:54;;;;;;;4.65;3.70;;;13.40;48.30;;;;;;5035762;28;20238;-72
2022/04/26 13:59:22;;;;;;;3.83;3.42;;;12.80;51.40;;;;;;5036820;28;20218;-73
2022/04/26 14:01:49;;;;;;;2.67;2.47;;;12.40;54.70;;;;;;5038615;28;20207;-72
2022/04/26 14:04:16;;;;;;;2.80;2.60;;;12.10;54.90;;;;;;5037223;28;20199;-73
2022/04/26 14:06:43;;;;;;;2.50;2.30;;;12.00;56.00;;;;;;5036188;28;20322;-75
2022/04/26 14:09:12;;;;;;;2.80;2.20;;;12.00;56.00;;;;;;5037093;28;20743;-72
2022/04/26 14:11:39;;;;;;;3.40;2.80;;;12.10;55.00;;;;;;5036270;28;20272;-74
2022/04/26 14:22:43;;;;;;;3.65;3.35;;;13.10;52.10;;;;;;5025138;28;20234;-73
2022/04/26 14:25:13;;;;;;;3.80;3.50;;;13.30;49.70;;;;;;5036096;28;20207;-73
2022/04/26 14:27:41;;;;;;;3.60;3.30;;;13.50;49.90;;;;;;5036993;28;20219;-74
2022/04/26 14:30:10;;;;;;;3.22;3.00;;;13.50;50.10;;;;;;5036679;28;20204;-73
2022/04/26 14:32:37;;;;;;;3.03;2.83;;;13.70;49.20;;;;;;5037427;28;20237;-73
2022/04/26 14:35:05;;;;;;;4.20;3.80;;;13.70;50.20;;;;;;5039331;28;20206;-73
2022/04/26 14:37:33;;;;;;;4.40;4.00;;;13.60;50.80;;;;;;5039592;28;20227;-74
2022/04/26 14:40:00;;;;;;;4.40;4.00;;;13.60;50.10;;;;;;5043690;28;20598;-73
2022/04/26 14:42:29;;;;;;;3.72;3.40;;;13.60;50.00;;;;;;5048712;28;20217;-73
2022/04/26 14:44:56;;;;;;;4.63;4.22;;;13.60;49.10;;;;;;5049550;28;20211;-74
2022/04/26 14:47:26;;;;;;;6.20;4.18;;;13.50;48.80;;;;;;5053559;28;20290;-73
2022/04/26 14:49:53;;;;;;;4.85;3.80;;;13.40;50.90;;;;;;5052198;28;20242;-74
2022/04/26 14:52:21;;;;;;;4.00;3.40;;;13.50;52.50;;;;;;5047224;28;20256;-73
2022/04/26 14:54:48;;;;;;;4.95;3.55;;;13.50;52.50;;;;;;5045865;28;20204;-73
2022/04/26 14:57:17;;;;;;;5.13;3.90;;;13.30;53.50;;;;;;5042574;28;20608;-74
2022/04/26 14:59:47;;;;;;;3.60;3.30;;;13.10;54.90;;;;;;5044023;28;20266;-74
2022/04/26 15:02:16;;;;;;;3.78;3.42;;;12.80;54.90;;;;;;5054029;28;20266;-73
2022/04/26 15:04:43;;;;;;;4.32;3.92;;;12.70;55.40;;;;;;5051107;28;20199;-73
2022/04/26 15:07:10;;;;;;;3.90;3.60;;;12.70;57.30;;;;;;5045687;28;20291;-75
2022/04/26 15:09:47;;;;;;;3.20;2.90;;;12.70;58.10;;;;;;5044289;28;20277;-74
2022/04/26 15:17:48;;;;;;;3.22;2.92;;;13.60;55.80;;;;;;5036209;28;20222;-73
2022/04/26 15:20:16;;;;;;;3.75;3.45;;;14.00;54.50;;;;;;5035448;28;20631;-74
2022/04/26 15:22:43;;;;;;;2.80;2.60;;;13.90;55.10;;;;;;5037211;28;20203;-74
2022/04/26 15:25:11;;;;;;;2.75;2.40;;;13.50;55.10;;;;;;5037509;28;20273;-74
2022/04/26 15:27:39;;;;;;;2.28;2.08;;;13.10;55.00;;;;;;5035318;28;20231;-74
2022/04/26 15:30:09;;;;;;;2.00;1.90;;;13.40;54.40;;;;;;5036099;28;20305;-73
2022/04/26 15:32:37;;;;;;;2.40;2.20;;;13.20;52.20;;;;;;5045245;28;20188;-72
2022/04/26 15:35:04;;;;;;;2.25;2.05;;;12.90;52.90;;;;;;5037874;28;20213;-73
2022/04/26 15:37:31;;;;;;;2.75;2.30;;;12.70;53.10;;;;;;5034808;28;20764;-74
2022/04/26 15:39:59;;;;;;;2.05;1.95;;;12.70;53.10;;;;;;5034028;28;20211;-73
2022/04/26 15:42:26;;;;;;;2.10;1.90;;;12.90;53.70;;;;;;5034262;28;20693;-74
2022/04/26 15:44:53;;;;;;;3.00;2.25;;;13.00;53.90;;;;;;5034499;28;20234;-74
2022/04/26 15:47:21;;;;;;;5.43;2.30;;;12.90;54.40;;;;;;5033354;28;20231;-73
2022/04/26 15:49:48;;;;;;;3.00;2.42;;;12.60;55.40;;;;;;5033734;28;20230;-73
2022/04/26 15:52:15;;;;;;;3.17;2.00;;;12.50;55.70;;;;;;5033736;28;20245;-74
2022/04/26 15:54:43;;;;;;;2.30;2.20;;;12.50;56.90;;;;;;5033572;28;20223;-73
2022/04/26 15:57:11;;;;;;;3.10;2.35;;;12.40;57.30;;;;;;5033715;28;20266;-73
2022/04/26 15:59:38;;;;;;;1.88;1.73;;;12.40;58.30;;;;;;5033784;28;20207;-73
2022/04/26 16:02:07;;;;;;;2.40;2.20;;;11.90;60.00;;;;;;5034128;28;20273;-73
2022/04/26 16:04:36;;;;;;;2.45;2.25;;;11.90;60.40;;;;;;5033971;28;20265;-75
2022/04/26 16:07:03;;;;;;;2.47;2.28;;;12.00;57.90;;;;;;5033544;28;20219;-74
2022/04/26 16:20:32;;;;;;;2.40;2.17;;;11.70;59.80;;;;;;5033856;28;20627;-74
2022/04/26 16:23:02;;;;;;;3.72;2.55;;;11.50;62.10;;;;;;5034967;28;20213;-75
2022/04/26 16:25:29;;;;;;;3.15;2.70;;;11.20;68.70;;;;;;5038297;28;20304;-73
2022/04/26 16:27:57;;;;;;;2.70;2.50;;;11.10;72.90;;;;;;5037499;28;20278;-73
2022/04/26 16:30:25;;;;;;;3.17;2.60;;;11.10;76.10;;;;;;5035167;28;20210;-74
2022/04/26 16:32:52;;;;;;;2.65;2.45;;;10.90;77.10;;;;;;5034018;28;20610;-74
2022/04/26 16:35:18;;;;;;;3.45;3.15;;;10.80;81.10;;;;;;5035234;28;20215;-73
2022/04/26 16:37:47;;;;;;;6.07;2.63;;;10.80;81.20;;;;;;5036105;28;20223;-74
2022/04/26 16:40:14;;;;;;;3.80;3.50;;;10.80;80.60;;;;;;5036302;28;20211;-72
2022/04/26 16:42:41;;;;;;;4.65;3.17;;;10.80;81.30;;;;;;5036864;28;20253;-75
2022/04/26 16:45:09;;;;;;;3.42;3.00;;;10.80;82.20;;;;;;5037093;28;20203;-75
2022/04/26 16:47:36;;;;;;;3.30;2.83;;;10.90;84.50;;;;;;5044635;28;20246;-73
2022/04/26 16:50:04;;;;;;;3.20;2.90;;;10.90;86.90;;;;;;5045152;28;20207;-74
2022/04/26 16:52:31;;;;;;;4.20;3.45;;;11.00;85.90;;;;;;5045902;28;20210;-73
2022/04/26 16:54:59;;;;;;;3.28;2.97;;;11.00;81.40;;;;;;5041592;28;20227;-72
2022/04/26 16:57:28;;;;;;;3.30;3.00;;;10.90;80.50;;;;;;5033719;28;20239;-73
2022/04/26 16:59:57;;;;;;;3.08;2.80;;;10.70;81.10;;;;;;5041386;28;20586;-73
2022/04/26 17:02:24;;;;;;;4.60;2.95;;;10.80;85.00;;;;;;5036723;28;20277;-74
2022/04/26 17:04:51;;;;;;;5.13;3.40;;;10.70;86.30;;;;;;5037267;28;20290;-73
2022/04/26 17:07:18;;;;;;;4.30;3.90;;;10.70;89.60;;;;;;5037593;28;20227;-73
2022/04/26 17:09:45;;;;;;;6.80;4.15;;;10.70;90.60;;;;;;5037813;28;20211;-73
2022/04/26 17:12:14;;;;;;;5.15;4.60;;;10.60;91.40;;;;;;5038426;28;20679;-74